Danville, VA

2:24 AM EST on December 28, 2014 (GMT -0500)
Druid Hills | Change Station
CLOSE
Current Station
Personal Weather Station
Location: Danville, VA
Elevation: 499 ft
Nearby Weather Stations

Elev 499 ft 36.56 °N, 79.42 °W | Updated 54 seconds ago

Mostly Cloudy
Mostly Cloudy
51.6 °F
Feels Like 51.6 °F
N
0.0
Wind Variable Wind from SW

Today
High -- | Low -- °F
--% Chance of Precip.
Yesterday
High -- | Low -- °F
Precip. -- in
7:28 AM 5:09 PM
Waxing Crescent, 45% visible
Pressure 30.09 in
Visibility 10.0 miles
Clouds Scattered Clouds 10000 ft
Dew Point 39 °F
Humidity 63%
Rainfall 0.00 in
Snow Depth Not available.
UV 0 out of 12
Pollen 1.00 out of 12
Air Quality Not available.
Flu Activity Not available.
METAR KDAN 280653Z AUTO 23005KT 10SM SCT100 10/03 A3011 RMK AO2 SLP188 T01000033

More Conditions Fewer Conditions

Pressure 30.09 in
Visibility 10.0 miles
Clouds Scattered Clouds 10000 ft
Dew Point 39 °F
Humidity 63%
Rainfall 0.00 in
Snow Depth Not available.
UV 0 out of 12
Pollen 1.00 out of 12
Air Quality Not available.
Flu Activity Not available.
METAR KDAN 280653Z AUTO 23005KT 10SM SCT100 10/03 A3011 RMK AO2 SLP188 T01000033

More Conditions Fewer Conditions

10-Day Weather Forecast

Almanac

Astronomy

Dec. 28, 2014 Rise Set
Actual Time
Civil Twilight
Nautical Twilight
Astronomical Twilight
Moon
Length of Visible Light
Length of Day
Tomorrow will be .
, % of the Moon is Illuminated

Today's Extremes

State Highs State Lows

Community

WunderPhotos

Upload Photos

1,781,210 photos uploaded!

WunderBlogs® & News

Nearby

Air Quality

  Air Quality AQ Index Pollutant
Not available.

Snow Depth

Station Depth Elevation

Earthquake Activity

City Distance Mag. Time & Date
Minimum magnitude displayed is 2.5.

Coastal Water Temperatures

Place Temperature

Nearby Weather Stations